Time;durP1;ratioP1;P1;durP2;ratioP2;P2;SDS_P1;SDS_P2;PMS_P1;PMS_P2;Temp;Humidity;BMP_temperature;BMP_pressure;BME280_temperature;BME280_humidity;BME280_pressure;Samples;Min_cycle;Max_cycle;Signal;HPM_P1;HPM_P2
2022/05/12 00:00:17;;;;;;;1.10;1.10;;;;;;;;;;5053504;28;20692;-80
2022/05/12 00:02:47;;;;;;;1.00;1.00;;;;;;;;;;5052970;28;20220;-80
2022/05/12 00:05:15;;;;;;;1.20;1.10;;;;;;;;;;5054157;28;20197;-81
2022/05/12 00:07:44;;;;;;;1.65;1.55;;;;;;;;;;5053461;28;20194;-81
2022/05/12 00:10:12;;;;;;;2.38;1.50;;;;;;;;;;5053850;28;20201;-80
2022/05/12 00:12:41;;;;;;;1.90;1.80;;;;;;;;;;5052650;28;20240;-81
2022/05/12 00:15:13;;;;;;;2.35;1.70;;;;;;;;;;5053317;28;20205;-80
2022/05/12 00:17:41;;;;;;;5.82;2.45;;;;;;;;;;5052861;28;20202;-81
2022/05/12 00:20:12;;;;;;;3.97;1.67;;;;;;;;;;5053349;28;20198;-81
2022/05/12 00:22:39;;;;;;;1.73;1.63;;;;;;;;;;5052208;28;20635;-81
2022/05/12 00:25:13;;;;;;;2.92;1.73;;;;;;;;;;5053199;28;20685;-80
2022/05/12 00:27:40;;;;;;;3.45;1.90;;;;;;;;;;5053268;28;20213;-81
2022/05/12 00:30:09;;;;;;;2.80;1.65;;;;;;;;;;5053012;28;20670;-81
2022/05/12 00:32:37;;;;;;;1.77;1.35;;;;;;;;;;5052696;28;20237;-80
2022/05/12 00:35:07;;;;;;;1.45;1.30;;;;;;;;;;5052942;28;20210;-82
2022/05/12 00:37:35;;;;;;;1.30;1.20;;;;;;;;;;5053063;28;20229;-80
2022/05/12 00:40:03;;;;;;;2.22;1.25;;;;;;;;;;5052891;28;20206;-81
2022/05/12 00:42:30;;;;;;;2.65;1.33;;;;;;;;;;5051735;28;20224;-81
2022/05/12 00:44:58;;;;;;;1.75;1.63;;;;;;;;;;5052650;28;20247;-80
2022/05/12 00:47:25;;;;;;;2.47;1.08;;;;;;;;;;5052925;28;20647;-81
2022/05/12 00:49:54;;;;;;;3.03;1.50;;;;;;;;;;5052521;28;20202;-82
2022/05/12 00:52:26;;;;;;;1.63;1.52;;;;;;;;;;5051937;28;20570;-81
2022/05/12 00:54:58;;;;;;;2.17;1.98;;;;;;;;;;5053045;28;20208;-80
2022/05/12 00:57:29;;;;;;;2.55;1.65;;;;;;;;;;5052764;28;20201;-80
2022/05/12 00:59:59;;;;;;;2.67;1.38;;;;;;;;;;5052777;28;20674;-81
2022/05/12 01:02:27;;;;;;;1.95;1.30;;;;;;;;;;5051655;28;20260;-80
2022/05/12 01:04:57;;;;;;;5.22;1.30;;;;;;;;;;5053096;28;20303;-80
2022/05/12 01:07:25;;;;;;;3.53;1.85;;;;;;;;;;5052743;28;20497;-81
2022/05/12 01:09:54;;;;;;;2.70;1.27;;;;;;;;;;5052488;28;20198;-80
2022/05/12 01:12:22;;;;;;;2.65;2.13;;;;;;;;;;5051697;28;20233;-81
2022/05/12 01:14:49;;;;;;;2.47;1.50;;;;;;;;;;5052532;28;20201;-80
2022/05/12 01:17:20;;;;;;;1.80;1.50;;;;;;;;;;5052616;28;20206;-80
2022/05/12 01:19:48;;;;;;;1.52;1.27;;;;;;;;;;5052159;28;20575;-81
2022/05/12 01:22:36;;;;;;;1.67;1.30;;;;;;;;;;5051756;28;20253;-81
2022/05/12 01:25:10;;;;;;;2.03;1.38;;;;;;;;;;5052373;28;20201;-79
2022/05/12 01:27:37;;;;;;;2.17;1.42;;;;;;;;;;5052067;28;20262;-80
2022/05/12 01:30:06;;;;;;;2.15;1.25;;;;;;;;;;5052052;28;20201;-80
2022/05/12 01:32:34;;;;;;;1.42;1.23;;;;;;;;;;5051688;28;20307;-80
2022/05/12 01:35:01;;;;;;;2.10;1.42;;;;;;;;;;5052273;28;20224;-81
2022/05/12 01:37:28;;;;;;;3.08;2.03;;;;;;;;;;5051814;28;20205;-80
2022/05/12 01:39:56;;;;;;;2.63;1.58;;;;;;;;;;5052191;28;20216;-82
2022/05/12 01:42:25;;;;;;;4.55;2.05;;;;;;;;;;5050677;28;20218;-81
2022/05/12 01:44:52;;;;;;;6.57;2.17;;;;;;;;;;5052340;28;20264;-80
2022/05/12 01:47:19;;;;;;;2.05;1.83;;;;;;;;;;5052081;28;20244;-79
2022/05/12 01:49:48;;;;;;;3.75;2.10;;;;;;;;;;5051988;28;20287;-80
2022/05/12 01:52:15;;;;;;;5.75;2.97;;;;;;;;;;5051158;28;20694;-80
2022/05/12 01:54:42;;;;;;;2.45;1.63;;;;;;;;;;5051794;28;20197;-80
2022/05/12 01:57:10;;;;;;;2.75;1.85;;;;;;;;;;5051692;28;20209;-83
2022/05/12 01:59:39;;;;;;;3.08;2.30;;;;;;;;;;5052320;28;20209;-80
2022/05/12 02:02:06;;;;;;;4.18;1.73;;;;;;;;;;5051461;28;20229;-81
2022/05/12 02:04:34;;;;;;;2.60;1.90;;;;;;;;;;5051780;28;20214;-80
2022/05/12 02:07:01;;;;;;;1.70;1.60;;;;;;;;;;5051705;28;20206;-79
2022/05/12 02:09:28;;;;;;;2.22;1.73;;;;;;;;;;5051943;28;20206;-82
2022/05/12 02:11:55;;;;;;;3.00;2.65;;;;;;;;;;5051327;28;20233;-80
2022/05/12 02:14:23;;;;;;;2.10;2.00;;;;;;;;;;5051766;28;20202;-80
2022/05/12 02:16:51;;;;;;;2.53;2.33;;;;;;;;;;5052218;28;20206;-80
2022/05/12 02:19:19;;;;;;;6.03;2.03;;;;;;;;;;5051834;28;20202;-81
2022/05/12 02:21:46;;;;;;;2.65;1.88;;;;;;;;;;5050763;28;20222;-80
2022/05/12 02:24:13;;;;;;;1.95;1.85;;;;;;;;;;5051261;28;20555;-81
2022/05/12 02:26:41;;;;;;;2.17;1.88;;;;;;;;;;5051703;28;20635;-80
2022/05/12 02:29:08;;;;;;;2.40;1.90;;;;;;;;;;5051350;28;20674;-80
2022/05/12 02:31:35;;;;;;;1.95;1.83;;;;;;;;;;5051246;28;20252;-81
2022/05/12 02:34:04;;;;;;;3.53;2.15;;;;;;;;;;5050828;28;20230;-82
2022/05/12 02:36:31;;;;;;;2.20;2.00;;;;;;;;;;5051603;28;20206;-83
2022/05/12 02:38:59;;;;;;;3.67;2.50;;;;;;;;;;5052020;28;20224;-81
2022/05/12 02:41:26;;;;;;;2.20;2.00;;;;;;;;;;5055324;28;20287;-81
2022/05/12 02:43:53;;;;;;;2.13;2.03;;;;;;;;;;5054146;28;20197;-81
2022/05/12 02:46:21;;;;;;;3.50;2.60;;;;;;;;;;5055295;28;20212;-80
2022/05/12 02:48:50;;;;;;;2.47;2.28;;;;;;;;;;5055050;28;20666;-80
2022/05/12 02:51:18;;;;;;;2.30;2.17;;;;;;;;;;5058593;28;20320;-82
2022/05/12 02:53:46;;;;;;;2.63;2.42;;;;;;;;;;5055975;28;20230;-81
2022/05/12 02:56:14;;;;;;;6.10;3.85;;;;;;;;;;5055337;28;20205;-81
2022/05/12 02:58:42;;;;;;;2.30;2.17;;;;;;;;;;5055414;28;20695;-80
2022/05/12 03:01:09;;;;;;;2.95;2.03;;;;;;;;;;5054918;28;20228;-80
2022/05/12 03:03:36;;;;;;;2.97;2.55;;;;;;;;;;5054096;28;20216;-80
2022/05/12 03:06:04;;;;;;;2.30;2.10;;;;;;;;;;5054611;28;20216;-81
2022/05/12 03:08:33;;;;;;;2.83;2.53;;;;;;;;;;5054639;28;20251;-82
2022/05/12 03:11:02;;;;;;;2.30;2.13;;;;;;;;;;5054401;28;20233;-80
2022/05/12 03:13:31;;;;;;;3.05;2.25;;;;;;;;;;5054394;28;20225;-81
2022/05/12 03:15:59;;;;;;;2.08;1.90;;;;;;;;;;5055089;28;20198;-80
2022/05/12 03:18:27;;;;;;;2.45;2.25;;;;;;;;;;5054345;28;20289;-81
2022/05/12 03:20:54;;;;;;;2.42;2.33;;;;;;;;;;5054573;28;20725;-81
2022/05/12 03:23:23;;;;;;;2.20;2.10;;;;;;;;;;5054339;28;20201;-80
2022/05/12 03:25:52;;;;;;;2.88;1.98;;;;;;;;;;5055542;28;20255;-81
2022/05/12 03:28:20;;;;;;;2.25;1.60;;;;;;;;;;5055189;28;20284;-83
2022/05/12 03:30:47;;;;;;;2.53;1.73;;;;;;;;;;5052086;28;20232;-81
2022/05/12 03:33:15;;;;;;;1.13;1.02;;;;;;;;;;5053724;28;20222;-81
2022/05/12 03:35:42;;;;;;;1.25;1.20;;;;;;;;;;5054810;28;20299;-82
2022/05/12 03:38:10;;;;;;;1.92;1.38;;;;;;;;;;5052146;28;20204;-81
2022/05/12 03:40:37;;;;;;;2.35;1.50;;;;;;;;;;5052707;28;20221;-81
2022/05/12 03:43:06;;;;;;;1.58;1.27;;;;;;;;;;5053519;28;20588;-82
2022/05/12 03:45:33;;;;;;;2.10;2.00;;;;;;;;;;5054112;28;20208;-82
2022/05/12 03:48:01;;;;;;;1.83;1.35;;;;;;;;;;5054377;28;20213;-82
2022/05/12 03:50:30;;;;;;;1.90;1.15;;;;;;;;;;5053457;28;20217;-83
2022/05/12 03:52:57;;;;;;;1.50;1.40;;;;;;;;;;5053289;28;20233;-81
2022/05/12 03:55:27;;;;;;;1.20;1.20;;;;;;;;;;5053959;28;20208;-81
2022/05/12 03:57:56;;;;;;;1.98;1.20;;;;;;;;;;5053758;28;20637;-82
2022/05/12 04:00:29;;;;;;;2.22;1.20;;;;;;;;;;5053592;28;20202;-81
2022/05/12 04:02:56;;;;;;;1.50;1.17;;;;;;;;;;5053079;28;20212;-81
2022/05/12 04:05:24;;;;;;;1.73;1.63;;;;;;;;;;5054003;28;20709;-81
2022/05/12 04:07:52;;;;;;;1.48;1.38;;;;;;;;;;5053589;28;20236;-82
2022/05/12 04:10:21;;;;;;;4.55;1.73;;;;;;;;;;5053687;28;20210;-81
2022/05/12 04:12:48;;;;;;;1.42;1.25;;;;;;;;;;5052783;28;20569;-80
2022/05/12 04:15:16;;;;;;;1.40;1.30;;;;;;;;;;5053402;28;20212;-81
2022/05/12 04:17:46;;;;;;;1.65;1.10;;;;;;;;;;5053414;28;20201;-81
2022/05/12 04:20:15;;;;;;;2.97;1.45;;;;;;;;;;5052710;28;20307;-82
2022/05/12 04:22:43;;;;;;;2.63;1.67;;;;;;;;;;5049578;28;20676;-81
2022/05/12 04:25:11;;;;;;;2.05;1.85;;;;;;;;;;5057483;28;20590;-81
2022/05/12 04:27:40;;;;;;;1.60;1.42;;;;;;;;;;5052900;28;20194;-80
2022/05/12 04:30:09;;;;;;;3.42;2.03;;;;;;;;;;5053084;28;20205;-80
2022/05/12 04:32:36;;;;;;;2.10;1.60;;;;;;;;;;5052049;28;20201;-81
2022/05/12 04:35:12;;;;;;;2.08;1.70;;;;;;;;;;5053181;28;20229;-82
2022/05/12 04:37:41;;;;;;;1.48;1.27;;;;;;;;;;5053041;28;20201;-81
2022/05/12 04:40:13;;;;;;;1.60;1.50;;;;;;;;;;5053006;28;20227;-81
2022/05/12 04:42:40;;;;;;;1.52;1.42;;;;;;;;;;5052528;28;20209;-81
2022/05/12 04:45:10;;;;;;;2.35;1.50;;;;;;;;;;5053425;28;20648;-82
2022/05/12 04:47:39;;;;;;;2.30;1.50;;;;;;;;;;5053082;28;20646;-83
2022/05/12 04:50:12;;;;;;;1.95;1.85;;;;;;;;;;5052682;28;20206;-82
2022/05/12 04:52:40;;;;;;;1.30;1.20;;;;;;;;;;5052710;28;20202;-82
2022/05/12 04:55:08;;;;;;;2.50;1.52;;;;;;;;;;5052844;28;20723;-82
2022/05/12 04:57:37;;;;;;;1.23;1.20;;;;;;;;;;5052817;28;20815;-82
2022/05/12 05:00:07;;;;;;;1.40;1.30;;;;;;;;;;5052463;28;20213;-82
2022/05/12 05:02:34;;;;;;;4.38;1.50;;;;;;;;;;5051341;28;20204;-83
2022/05/12 05:05:02;;;;;;;1.27;1.08;;;;;;;;;;5051759;28;20658;-81
2022/05/12 05:07:30;;;;;;;2.78;1.58;;;;;;;;;;5052325;28;20206;-81
2022/05/12 05:09:58;;;;;;;1.67;1.58;;;;;;;;;;5052356;28;20670;-81
2022/05/12 05:12:25;;;;;;;1.80;1.40;;;;;;;;;;5052477;28;20619;-82
2022/05/12 05:14:52;;;;;;;1.65;1.33;;;;;;;;;;5051491;28;20701;-81
2022/05/12 05:17:19;;;;;;;1.50;1.40;;;;;;;;;;5052584;28;20624;-79
2022/05/12 05:19:47;;;;;;;1.40;1.30;;;;;;;;;;5052476;28;20205;-78
2022/05/12 05:22:14;;;;;;;2.22;1.30;;;;;;;;;;5052088;28;20221;-78
2022/05/12 05:24:43;;;;;;;1.08;0.90;;;;;;;;;;5052923;28;20569;-78
2022/05/12 05:27:10;;;;;;;1.58;1.23;;;;;;;;;;5052676;28;20587;-78
2022/05/12 05:29:40;;;;;;;1.30;1.20;;;;;;;;;;5052426;28;20197;-78
2022/05/12 05:32:10;;;;;;;1.33;1.23;;;;;;;;;;5052396;28;20225;-78
2022/05/12 05:34:37;;;;;;;1.75;1.50;;;;;;;;;;5052460;28;20229;-79
2022/05/12 05:37:05;;;;;;;1.73;1.30;;;;;;;;;;5052279;28;20338;-78
2022/05/12 05:39:32;;;;;;;3.00;1.50;;;;;;;;;;5051974;28;20731;-79
2022/05/12 05:42:06;;;;;;;1.58;1.40;;;;;;;;;;5050993;28;21187;-78
2022/05/12 05:44:33;;;;;;;1.38;1.20;;;;;;;;;;5052375;28;20197;-78
2022/05/12 05:47:01;;;;;;;1.73;1.55;;;;;;;;;;5051916;28;20209;-78
2022/05/12 05:49:30;;;;;;;2.08;1.60;;;;;;;;;;5052422;28;20288;-78
2022/05/12 05:54:42;;;;;;;3.63;1.80;;;;;;;;;;5052379;28;20605;-78
2022/05/12 05:57:11;;;;;;;3.28;1.70;;;;;;;;;;5052743;28;20630;-78
2022/05/12 05:59:39;;;;;;;1.95;1.25;;;;;;;;;;5052374;28;20705;-78
2022/05/12 06:02:06;;;;;;;1.67;1.50;;;;;;;;;;5051479;28;20603;-79
2022/05/12 06:04:34;;;;;;;1.50;1.40;;;;;;;;;;5051787;28;20213;-78
2022/05/12 06:07:01;;;;;;;1.67;1.45;;;;;;;;;;5052267;28;20201;-79
2022/05/12 06:09:29;;;;;;;1.30;1.20;;;;;;;;;;5051469;28;20212;-79
2022/05/12 06:11:56;;;;;;;2.95;1.30;;;;;;;;;;5051448;28;20275;-79
2022/05/12 06:14:24;;;;;;;2.33;1.20;;;;;;;;;;5051818;28;20225;-79
2022/05/12 06:16:52;;;;;;;1.42;1.17;;;;;;;;;;5055706;28;20216;-79
2022/05/12 06:19:19;;;;;;;1.98;1.30;;;;;;;;;;5055429;28;20252;-79
2022/05/12 06:21:46;;;;;;;2.10;1.40;;;;;;;;;;5053712;28;20221;-79
2022/05/12 06:24:14;;;;;;;1.65;1.10;;;;;;;;;;5055740;28;20209;-79
2022/05/12 06:26:41;;;;;;;1.40;1.30;;;;;;;;;;5055914;28;20674;-79
2022/05/12 06:29:08;;;;;;;2.00;1.23;;;;;;;;;;5055676;28;20202;-79
2022/05/12 06:31:39;;;;;;;3.35;1.75;;;;;;;;;;5055388;28;20663;-78
2022/05/12 06:34:06;;;;;;;3.10;1.33;;;;;;;;;;5055128;28;20208;-79
2022/05/12 06:36:34;;;;;;;1.98;1.55;;;;;;;;;;5055754;28;20213;-78
2022/05/12 06:39:01;;;;;;;1.55;1.00;;;;;;;;;;5056016;28;20198;-78
2022/05/12 06:41:29;;;;;;;0.90;0.90;;;;;;;;;;5055545;28;20682;-78
2022/05/12 06:43:57;;;;;;;2.92;1.80;;;;;;;;;;5055976;28;20227;-79
2022/05/12 06:46:25;;;;;;;1.23;1.00;;;;;;;;;;5055231;28;20574;-79
2022/05/12 06:48:54;;;;;;;1.88;1.35;;;;;;;;;;5055652;28;20268;-79
2022/05/12 06:51:21;;;;;;;4.15;1.45;;;;;;;;;;5055428;28;20221;-79
2022/05/12 06:53:49;;;;;;;1.33;1.23;;;;;;;;;;5054640;28;20213;-78
2022/05/12 06:56:17;;;;;;;2.67;1.40;;;;;;;;;;5055752;28;20217;-79
2022/05/12 06:58:44;;;;;;;1.40;1.30;;;;;;;;;;5055256;28;20205;-79
2022/05/12 07:01:12;;;;;;;1.10;1.10;;;;;;;;;;5055637;28;20259;-79
2022/05/12 07:03:40;;;;;;;1.20;1.05;;;;;;;;;;5054171;28;20209;-78
2022/05/12 07:06:10;;;;;;;1.70;1.60;;;;;;;;;;5055038;28;20205;-79
2022/05/12 07:08:41;;;;;;;2.20;1.50;;;;;;;;;;5055108;28;20248;-79
2022/05/12 07:11:08;;;;;;;2.72;1.45;;;;;;;;;;5054934;28;20264;-79
2022/05/12 07:13:36;;;;;;;3.10;1.33;;;;;;;;;;5054536;28;20224;-79
2022/05/12 07:16:05;;;;;;;1.52;1.27;;;;;;;;;;5054576;28;20279;-79
2022/05/12 07:18:34;;;;;;;1.27;1.13;;;;;;;;;;5054541;28;20551;-79
2022/05/12 07:26:36;;;;;;;1.45;0.90;;;;;;;;;;5054279;28;20196;-79
2022/05/12 07:29:05;;;;;;;1.10;1.00;;;;;;;;;;5054742;28;20210;-79
2022/05/12 07:31:33;;;;;;;1.20;1.10;;;;;;;;;;5053988;28;20222;-78
2022/05/12 07:34:00;;;;;;;1.67;1.30;;;;;;;;;;5054913;28;20281;-79
2022/05/12 07:36:30;;;;;;;1.20;1.08;;;;;;;;;;5054310;28;20304;-79
2022/05/12 07:39:00;;;;;;;1.70;1.40;;;;;;;;;;5054688;28;20205;-79
2022/05/12 07:41:28;;;;;;;1.45;1.23;;;;;;;;;;5054607;28;20222;-79
2022/05/12 07:43:58;;;;;;;1.50;1.00;;;;;;;;;;5053800;28;20197;-79
2022/05/12 07:46:31;;;;;;;2.65;1.30;;;;;;;;;;5054560;28;20225;-78
2022/05/12 07:48:59;;;;;;;2.63;1.58;;;;;;;;;;5054663;28;20209;-78
2022/05/12 07:51:26;;;;;;;1.60;1.50;;;;;;;;;;5054709;28;20763;-78
2022/05/12 07:53:54;;;;;;;1.50;1.40;;;;;;;;;;5054401;28;20255;-79
2022/05/12 07:56:25;;;;;;;1.30;1.20;;;;;;;;;;5054834;28;20279;-79
2022/05/12 07:58:53;;;;;;;2.80;2.05;;;;;;;;;;5054601;28;20728;-79
2022/05/12 08:01:22;;;;;;;1.38;1.25;;;;;;;;;;5054088;28;20221;-78
2022/05/12 08:03:49;;;;;;;3.05;1.80;;;;;;;;;;5053457;28;20214;-79
2022/05/12 08:06:18;;;;;;;2.53;1.50;;;;;;;;;;5053979;28;20685;-79
2022/05/12 08:08:49;;;;;;;1.90;1.52;;;;;;;;;;5078786;22;20244;-86
2022/05/12 08:11:18;;;;;;;1.80;1.60;;;;;;;;;;5033932;28;20671;-83
2022/05/12 08:13:47;;;;;;;1.27;1.20;;;;;;;;;;5035169;28;20198;-85
2022/05/12 08:16:16;;;;;;;1.50;1.40;;;;;;;;;;5034347;28;20218;-86
2022/05/12 08:18:46;;;;;;;2.72;1.27;;;;;;;;;;5035277;28;20293;-84
2022/05/12 08:21:14;;;;;;;2.83;1.65;;;;;;;;;;5034004;28;20204;-85
2022/05/12 08:23:41;;;;;;;0.60;0.60;;;;;;;;;;5033595;28;20198;-86
2022/05/12 08:26:09;;;;;;;1.58;1.48;;;;;;;;;;5033827;28;20205;-85
2022/05/12 08:28:37;;;;;;;2.15;1.20;;;;;;;;;;5034035;28;20209;-86
2022/05/12 08:31:06;;;;;;;0.90;0.90;;;;;;;;;;5034353;28;20238;-84
2022/05/12 08:33:34;;;;;;;1.80;1.30;;;;;;;;;;5034924;28;20564;-86
2022/05/12 08:36:01;;;;;;;2.08;1.20;;;;;;;;;;5035005;28;20280;-85
2022/05/12 08:38:28;;;;;;;5.38;1.70;;;;;;;;;;5034202;28;20213;-87
2022/05/12 08:41:13;;;;;;;1.33;1.23;;;;;;;;;;5034618;28;20202;-86
2022/05/12 08:43:53;;;;;;;1.05;0.98;;;;;;;;;;5034306;28;20187;-86
2022/05/12 08:46:24;;;;;;;1.70;1.20;;;;;;;;;;5034102;28;20619;-86
2022/05/12 08:49:01;;;;;;;1.30;1.20;;;;;;;;;;5033976;28;20194;-85
2022/05/12 08:51:35;;;;;;;1.42;0.98;;;;;;;;;;5033871;28;20221;-87
2022/05/12 08:54:06;;;;;;;1.10;1.00;;;;;;;;;;5033728;28;20532;-87
2022/05/12 08:56:33;;;;;;;2.17;1.58;;;;;;;;;;5033499;28;20217;-86
2022/05/12 08:59:02;;;;;;;2.00;1.08;;;;;;;;;;5034101;28;20199;-85
2022/05/12 09:01:41;;;;;;;1.95;1.23;;;;;;;;;;5033269;28;20214;-84
2022/05/12 09:04:33;;;;;;;0.85;0.85;;;;;;;;;;5033185;28;20182;-86
2022/05/12 09:07:09;;;;;;;2.55;1.25;;;;;;;;;;5033705;28;20650;-87
2022/05/12 09:09:43;;;;;;;1.40;1.23;;;;;;;;;;5033398;28;20214;-86
2022/05/12 09:12:25;;;;;;;2.25;0.90;;;;;;;;;;5033227;28;20597;-86
2022/05/12 09:14:57;;;;;;;1.20;1.05;;;;;;;;;;5033161;28;20206;-86
2022/05/12 09:17:30;;;;;;;0.93;0.82;;;;;;;;;;5033040;28;20206;-86
2022/05/12 09:19:59;;;;;;;0.80;0.80;;;;;;;;;;5033620;28;20205;-87
2022/05/12 09:22:28;;;;;;;0.80;0.77;;;;;;;;;;5050092;22;20642;-78
2022/05/12 09:24:56;;;;;;;0.90;0.90;;;;;;;;;;5052943;28;20209;-79
2022/05/12 09:27:30;;;;;;;1.00;1.00;;;;;;;;;;5053136;28;20741;-79
2022/05/12 09:29:57;;;;;;;1.73;1.00;;;;;;;;;;5052855;28;20644;-78
2022/05/12 09:32:31;;;;;;;1.02;1.02;;;;;;;;;;5052091;28;20263;-80
2022/05/12 09:35:11;;;;;;;0.90;0.82;;;;;;;;;;5053137;28;20700;-79
2022/05/12 09:37:40;;;;;;;2.42;1.15;;;;;;;;;;5053120;28;20225;-79
2022/05/12 09:40:24;;;;;;;1.00;1.00;;;;;;;;;;5053477;28;20222;-79
2022/05/12 09:42:54;;;;;;;2.17;1.00;;;;;;;;;;5052404;28;20561;-80
2022/05/12 09:45:30;;;;;;;0.90;0.90;;;;;;;;;;5052811;28;20296;-79
2022/05/12 09:48:24;;;;;;;1.42;0.93;;;;;;;;;;5052997;28;20295;-79
2022/05/12 09:50:52;;;;;;;1.27;1.17;;;;;;;;;;5056619;28;20202;-79
2022/05/12 09:53:29;;;;;;;1.05;1.00;;;;;;;;;;5056318;28;20247;-78
2022/05/12 09:56:04;;;;;;;0.98;0.98;;;;;;;;;;5056359;28;20208;-79
2022/05/12 09:58:36;;;;;;;0.90;0.90;;;;;;;;;;5056701;28;20201;-79
2022/05/12 10:01:19;;;;;;;1.45;0.70;;;;;;;;;;5057297;28;20213;-79
2022/05/12 10:09:23;;;;;;;0.85;0.85;;;;;;;;;;5056940;28;20271;-80
2022/05/12 10:11:58;;;;;;;0.95;0.80;;;;;;;;;;5055205;28;20339;-79
2022/05/12 10:14:34;;;;;;;0.77;0.77;;;;;;;;;;5057204;28;20194;-79
2022/05/12 10:17:13;;;;;;;0.80;0.80;;;;;;;;;;5056879;28;20225;-79
2022/05/12 10:19:42;;;;;;;0.88;0.88;;;;;;;;;;5056901;28;20228;-80
2022/05/12 10:22:16;;;;;;;1.63;1.00;;;;;;;;;;5055864;28;20198;-79
2022/05/12 10:24:55;;;;;;;0.80;0.80;;;;;;;;;;5037243;28;20210;-78
2022/05/12 10:27:35;;;;;;;0.90;0.90;;;;;;;;;;5036483;28;20614;-79
2022/05/12 10:30:18;;;;;;;1.85;1.27;;;;;;;;;;5037016;28;20222;-79
2022/05/12 10:32:59;;;;;;;1.40;0.88;;;;;;;;;;5035990;28;20256;-79
2022/05/12 10:35:35;;;;;;;1.42;0.80;;;;;;;;;;5036458;28;20194;-78
2022/05/12 10:38:06;;;;;;;1.05;0.80;;;;;;;;;;5036385;28;20217;-79
2022/05/12 10:40:39;;;;;;;0.88;0.70;;;;;;;;;;5036169;28;20272;-79
2022/05/12 10:43:36;;;;;;;1.00;1.00;;;;;;;;;;5035504;28;20202;-78
2022/05/12 10:46:11;;;;;;;0.80;0.80;;;;;;;;;;5035440;28;20293;-79
2022/05/12 10:48:48;;;;;;;0.88;0.82;;;;;;;;;;5036162;28;20213;-79
2022/05/12 10:51:27;;;;;;;0.70;0.60;;;;;;;;;;5049415;28;20320;-79
2022/05/12 10:54:13;;;;;;;0.80;0.80;;;;;;;;;;5055445;28;20281;-79
2022/05/12 10:56:48;;;;;;;0.70;0.70;;;;;;;;;;5056058;28;20607;-79
2022/05/12 10:59:53;;;;;;;1.15;0.60;;;;;;;;;;5055894;28;20217;-78
2022/05/12 11:02:27;;;;;;;1.00;0.85;;;;;;;;;;5054872;28;20208;-79
2022/05/12 11:05:01;;;;;;;1.30;0.70;;;;;;;;;;5055778;28;20210;-79
2022/05/12 11:07:35;;;;;;;0.88;0.68;;;;;;;;;;5055850;28;20208;-78
2022/05/12 11:10:15;;;;;;;1.20;1.10;;;;;;;;;;5055686;28;20225;-77
2022/05/12 11:12:46;;;;;;;1.67;0.90;;;;;;;;;;5053518;28;20230;-79
2022/05/12 11:15:17;;;;;;;0.70;0.70;;;;;;;;;;5055787;28;20666;-79
2022/05/12 11:17:47;;;;;;;1.00;0.77;;;;;;;;;;5055298;28;20221;-79
2022/05/12 11:20:25;;;;;;;0.80;0.80;;;;;;;;;;5055529;28;20276;-79
2022/05/12 11:23:07;;;;;;;1.08;0.80;;;;;;;;;;5055303;28;20220;-79
2022/05/12 11:25:41;;;;;;;1.92;1.10;;;;;;;;;;5055299;28;20210;-78
2022/05/12 11:31:04;;;;;;;1.50;0.95;;;;;;;;;;5055275;28;20271;-78
2022/05/12 11:33:35;;;;;;;0.60;0.52;;;;;;;;;;5055089;28;20208;-79
2022/05/12 11:36:03;;;;;;;0.77;0.77;;;;;;;;;;5055920;28;20202;-78
2022/05/12 11:38:49;;;;;;;0.88;0.80;;;;;;;;;;5054649;28;20225;-80
2022/05/12 11:41:39;;;;;;;0.80;0.80;;;;;;;;;;5055616;28;20259;-79
2022/05/12 11:44:24;;;;;;;0.93;0.85;;;;;;;;;;5056731;28;20202;-79
2022/05/12 11:47:15;;;;;;;3.17;1.45;;;;;;;;;;5056012;28;20212;-79
2022/05/12 11:50:01;;;;;;;0.93;0.93;;;;;;;;;;5054673;28;20222;-79
2022/05/12 11:52:42;;;;;;;0.80;0.80;;;;;;;;;;5053758;28;20251;-78
2022/05/12 11:55:26;;;;;;;1.95;0.95;;;;;;;;;;5054490;28;20621;-78
2022/05/12 11:58:07;;;;;;;1.35;0.60;;;;;;;;;;5054668;28;20721;-79
2022/05/12 12:01:00;;;;;;;0.93;0.73;;;;;;;;;;5054988;28;20224;-79
2022/05/12 12:03:50;;;;;;;1.75;0.80;;;;;;;;;;5053972;28;20198;-79
2022/05/12 12:06:51;;;;;;;1.45;0.70;;;;;;;;;;5054572;28;20208;-78
2022/05/12 12:09:54;;;;;;;1.38;1.17;;;;;;;;;;5053139;28;20217;-79
2022/05/12 12:13:15;;;;;;;1.13;1.00;;;;;;;;;;5041804;28;20229;-78
2022/05/12 12:16:11;;;;;;;0.50;0.50;;;;;;;;;;5031804;28;20716;-79
2022/05/12 12:19:05;;;;;;;0.60;0.60;;;;;;;;;;5054274;28;20693;-78
2022/05/12 12:22:00;;;;;;;1.48;0.80;;;;;;;;;;5054026;28;20213;-79
2022/05/12 12:25:04;;;;;;;0.70;0.70;;;;;;;;;;5054625;28;20628;-79
2022/05/12 12:28:11;;;;;;;1.23;1.13;;;;;;;;;;5054287;28;20624;-78
2022/05/12 12:31:08;;;;;;;0.80;0.80;;;;;;;;;;5054517;28;20225;-78
2022/05/12 12:34:15;;;;;;;0.60;0.60;;;;;;;;;;5053190;28;20562;-79
2022/05/12 12:37:02;;;;;;;0.70;0.70;;;;;;;;;;5053602;28;20209;-78
2022/05/12 12:39:48;;;;;;;0.70;0.70;;;;;;;;;;5053621;28;20230;-78
2022/05/12 12:42:24;;;;;;;0.82;0.82;;;;;;;;;;5052767;28;20255;-79
2022/05/12 12:44:55;;;;;;;1.20;0.90;;;;;;;;;;5052162;28;20201;-79
2022/05/12 12:47:39;;;;;;;0.68;0.68;;;;;;;;;;5053532;28;20678;-79
2022/05/12 12:50:21;;;;;;;0.60;0.60;;;;;;;;;;5053153;28;20229;-79
2022/05/12 12:52:51;;;;;;;1.70;0.90;;;;;;;;;;5052757;28;20658;-78
2022/05/12 12:58:07;;;;;;;1.02;0.98;;;;;;;;;;5053207;28;20221;-78
2022/05/12 13:00:36;;;;;;;0.63;0.63;;;;;;;;;;5053095;28;20299;-78
2022/05/12 13:03:08;;;;;;;0.80;0.80;;;;;;;;;;5052306;28;20210;-79
2022/05/12 13:05:37;;;;;;;0.70;0.70;;;;;;;;;;5053708;28;20206;-79
2022/05/12 13:08:08;;;;;;;0.60;0.60;;;;;;;;;;5053172;28;20736;-79
2022/05/12 13:10:45;;;;;;;0.80;0.68;;;;;;;;;;5053467;28;20228;-79
2022/05/12 13:13:12;;;;;;;1.77;1.15;;;;;;;;;;5051247;28;20201;-79
2022/05/12 13:15:43;;;;;;;1.00;0.82;;;;;;;;;;5054002;28;20650;-78
2022/05/12 13:18:28;;;;;;;0.80;0.80;;;;;;;;;;5052907;28;20382;-79
2022/05/12 13:20:55;;;;;;;0.75;0.70;;;;;;;;;;5053222;28;20209;-78
2022/05/12 13:23:26;;;;;;;0.70;0.70;;;;;;;;;;5051862;28;20210;-79
2022/05/12 13:25:54;;;;;;;0.90;0.90;;;;;;;;;;5053107;28;20209;-78
2022/05/12 13:28:25;;;;;;;1.25;1.02;;;;;;;;;;5052784;28;20204;-79
2022/05/12 13:31:10;;;;;;;1.10;0.80;;;;;;;;;;5052969;28;20201;-79
2022/05/12 13:33:40;;;;;;;0.75;0.40;;;;;;;;;;5052423;28;20213;-79
2022/05/12 13:36:09;;;;;;;1.35;1.10;;;;;;;;;;5052720;28;20212;-79
2022/05/12 13:38:46;;;;;;;1.15;1.00;;;;;;;;;;5052239;28;20225;-78
2022/05/12 13:41:27;;;;;;;1.48;1.20;;;;;;;;;;5052883;28;20213;-79
2022/05/12 13:44:09;;;;;;;1.00;1.00;;;;;;;;;;5051938;28;20232;-78
2022/05/12 13:46:38;;;;;;;0.95;0.93;;;;;;;;;;5052855;28;20700;-78
2022/05/12 13:49:09;;;;;;;1.20;0.85;;;;;;;;;;5052758;28;20221;-79
2022/05/12 13:51:51;;;;;;;0.82;0.70;;;;;;;;;;5052601;28;20212;-79
2022/05/12 13:54:29;;;;;;;0.90;0.90;;;;;;;;;;5052685;28;20207;-79
2022/05/12 13:57:20;;;;;;;0.73;0.73;;;;;;;;;;5052314;28;20206;-78
2022/05/12 13:59:57;;;;;;;0.82;0.82;;;;;;;;;;5052495;28;20316;-79
2022/05/12 14:02:34;;;;;;;0.80;0.80;;;;;;;;;;5052103;28;20205;-78
2022/05/12 14:05:09;;;;;;;1.45;1.00;;;;;;;;;;5052432;28;20217;-78
2022/05/12 14:07:36;;;;;;;0.90;0.90;;;;;;;;;;5052587;28;20596;-79
2022/05/12 14:10:17;;;;;;;0.80;0.80;;;;;;;;;;5052663;28;20221;-78
2022/05/12 14:21:01;;;;;;;2.05;1.77;;;;;;;;;;5052765;28;20205;-78
2022/05/12 14:23:28;;;;;;;1.52;1.42;;;;;;;;;;5051842;28;20214;-79
2022/05/12 14:25:55;;;;;;;1.15;1.05;;;;;;;;;;5052820;28;20205;-79
2022/05/12 14:28:23;;;;;;;0.90;0.90;;;;;;;;;;5052594;28;20620;-78
2022/05/12 14:30:50;;;;;;;0.90;0.90;;;;;;;;;;5052781;28;20202;-79
2022/05/12 14:33:18;;;;;;;1.00;1.00;;;;;;;;;;5051340;28;20214;-79
2022/05/12 14:35:46;;;;;;;1.38;1.15;;;;;;;;;;5054478;28;20198;-79
2022/05/12 14:38:14;;;;;;;0.73;0.73;;;;;;;;;;5056280;28;20247;-78
2022/05/12 14:40:42;;;;;;;0.88;0.88;;;;;;;;;;5055932;28;20267;-79
2022/05/12 14:43:09;;;;;;;0.73;0.73;;;;;;;;;;5055999;28;20206;-78
2022/05/12 14:45:36;;;;;;;1.75;1.65;;;;;;;;;;5055388;28;20205;-79
2022/05/12 14:48:07;;;;;;;1.45;1.35;;;;;;;;;;5056256;28;20271;-79
2022/05/12 14:50:35;;;;;;;1.30;1.00;;;;;;;;;;5055832;28;20313;-78
2022/05/12 14:53:08;;;;;;;0.93;0.90;;;;;;;;;;5055637;28;20244;-78
2022/05/12 14:55:37;;;;;;;0.80;0.80;;;;;;;;;;5056278;28;20582;-79
2022/05/12 14:58:05;;;;;;;0.80;0.80;;;;;;;;;;5056042;28;20209;-79
2022/05/12 15:00:33;;;;;;;0.82;0.82;;;;;;;;;;5055457;28;20221;-79
2022/05/12 15:03:01;;;;;;;0.82;0.82;;;;;;;;;;5055353;28;20289;-79
2022/05/12 15:05:30;;;;;;;1.92;1.17;;;;;;;;;;5055777;28;20205;-79
2022/05/12 15:07:58;;;;;;;2.05;1.10;;;;;;;;;;5055725;28;20256;-79
2022/05/12 15:10:26;;;;;;;0.90;0.90;;;;;;;;;;5055951;28;20276;-79
2022/05/12 15:12:54;;;;;;;0.90;0.90;;;;;;;;;;5053226;28;20201;-78
2022/05/12 15:15:22;;;;;;;1.00;1.00;;;;;;;;;;5054790;28;20251;-78
2022/05/12 15:17:50;;;;;;;0.80;0.80;;;;;;;;;;5055291;28;20210;-80
2022/05/12 15:20:20;;;;;;;0.70;0.70;;;;;;;;;;5055570;28;20600;-79
2022/05/12 15:22:49;;;;;;;0.73;0.70;;;;;;;;;;5055091;28;20223;-79
2022/05/12 15:25:17;;;;;;;0.90;0.90;;;;;;;;;;5055435;28;20584;-78
2022/05/12 15:27:47;;;;;;;0.80;0.80;;;;;;;;;;5054981;28;20201;-78
2022/05/12 15:30:19;;;;;;;1.40;1.30;;;;;;;;;;5054780;28;20229;-79
2022/05/12 15:32:46;;;;;;;1.02;1.00;;;;;;;;;;5053202;28;20201;-79
2022/05/12 15:35:16;;;;;;;2.35;0.90;;;;;;;;;;5055756;28;20259;-79
2022/05/12 15:37:43;;;;;;;0.73;0.73;;;;;;;;;;5056437;28;20209;-80